sensor_id;sensor_type;location;lat;lon;timestamp;P1;durP1;ratioP1;P2;durP2;ratioP2
67889;SDS011;54685;52.082;5.426;2024-03-08T00:00:13;36.00;;;18.52;;
67889;SDS011;54685;52.082;5.426;2024-03-08T00:02:45;31.90;;;17.40;;
67889;SDS011;54685;52.082;5.426;2024-03-08T00:05:13;33.63;;;18.48;;
67889;SDS011;54685;52.082;5.426;2024-03-08T00:07:41;35.55;;;18.67;;
67889;SDS011;54685;52.082;5.426;2024-03-08T00:10:09;33.53;;;17.75;;
67889;SDS011;54685;52.082;5.426;2024-03-08T00:12:43;32.42;;;18.17;;
67889;SDS011;54685;52.082;5.426;2024-03-08T00:15:12;33.25;;;18.38;;
67889;SDS011;54685;52.082;5.426;2024-03-08T00:17:42;32.65;;;18.27;;
67889;SDS011;54685;52.082;5.426;2024-03-08T00:20:10;32.38;;;18.05;;
67889;SDS011;54685;52.082;5.426;2024-03-08T00:22:37;34.03;;;17.88;;
67889;SDS011;54685;52.082;5.426;2024-03-08T00:25:05;31.45;;;18.15;;
67889;SDS011;54685;52.082;5.426;2024-03-08T00:27:35;32.72;;;18.90;;
67889;SDS011;54685;52.082;5.426;2024-03-08T00:30:05;30.60;;;18.17;;
67889;SDS011;54685;52.082;5.426;2024-03-08T00:32:33;31.52;;;19.02;;
67889;SDS011;54685;52.082;5.426;2024-03-08T00:35:00;35.05;;;19.08;;
67889;SDS011;54685;52.082;5.426;2024-03-08T00:37:30;35.88;;;18.38;;
67889;SDS011;54685;52.082;5.426;2024-03-08T00:39:57;32.30;;;19.20;;
67889;SDS011;54685;52.082;5.426;2024-03-08T00:42:24;34.60;;;17.63;;
67889;SDS011;54685;52.082;5.426;2024-03-08T00:44:51;33.03;;;18.90;;
67889;SDS011;54685;52.082;5.426;2024-03-08T00:47:18;35.97;;;19.08;;
67889;SDS011;54685;52.082;5.426;2024-03-08T00:49:45;30.73;;;18.08;;
67889;SDS011;54685;52.082;5.426;2024-03-08T00:52:13;29.45;;;17.35;;
67889;SDS011;54685;52.082;5.426;2024-03-08T00:54:39;33.17;;;18.23;;
67889;SDS011;54685;52.082;5.426;2024-03-08T00:57:06;33.78;;;18.38;;
67889;SDS011;54685;52.082;5.426;2024-03-08T00:59:37;31.75;;;18.05;;
67889;SDS011;54685;52.082;5.426;2024-03-08T01:02:05;32.78;;;19.08;;
67889;SDS011;54685;52.082;5.426;2024-03-08T01:04:32;32.90;;;18.67;;
67889;SDS011;54685;52.082;5.426;2024-03-08T01:06:59;33.97;;;18.77;;
67889;SDS011;54685;52.082;5.426;2024-03-08T01:09:26;34.88;;;18.83;;
67889;SDS011;54685;52.082;5.426;2024-03-08T01:11:54;34.28;;;18.85;;
67889;SDS011;54685;52.082;5.426;2024-03-08T01:14:22;34.33;;;18.27;;
67889;SDS011;54685;52.082;5.426;2024-03-08T01:16:49;34.13;;;19.50;;
67889;SDS011;54685;52.082;5.426;2024-03-08T01:19:17;32.95;;;19.38;;
67889;SDS011;54685;52.082;5.426;2024-03-08T01:21:44;36.33;;;19.75;;
67889;SDS011;54685;52.082;5.426;2024-03-08T01:24:13;31.38;;;19.00;;
67889;SDS011;54685;52.082;5.426;2024-03-08T01:26:40;33.22;;;18.85;;
67889;SDS011;54685;52.082;5.426;2024-03-08T01:29:07;30.67;;;18.60;;
67889;SDS011;54685;52.082;5.426;2024-03-08T01:31:34;36.60;;;18.65;;
67889;SDS011;54685;52.082;5.426;2024-03-08T01:34:03;31.85;;;19.27;;
67889;SDS011;54685;52.082;5.426;2024-03-08T01:36:29;35.40;;;18.80;;
67889;SDS011;54685;52.082;5.426;2024-03-08T01:38:58;39.00;;;19.33;;
67889;SDS011;54685;52.082;5.426;2024-03-08T01:41:25;33.55;;;19.15;;
67889;SDS011;54685;52.082;5.426;2024-03-08T01:43:56;31.23;;;19.80;;
67889;SDS011;54685;52.082;5.426;2024-03-08T01:46:23;31.38;;;18.45;;
67889;SDS011;54685;52.082;5.426;2024-03-08T01:48:50;33.03;;;19.10;;
67889;SDS011;54685;52.082;5.426;2024-03-08T01:51:18;37.70;;;20.05;;
67889;SDS011;54685;52.082;5.426;2024-03-08T01:53:45;34.22;;;19.05;;
67889;SDS011;54685;52.082;5.426;2024-03-08T01:56:13;34.70;;;20.13;;
67889;SDS011;54685;52.082;5.426;2024-03-08T01:58:41;36.35;;;19.77;;
67889;SDS011;54685;52.082;5.426;2024-03-08T02:01:11;40.35;;;19.25;;
67889;SDS011;54685;52.082;5.426;2024-03-08T02:03:41;31.95;;;18.55;;
67889;SDS011;54685;52.082;5.426;2024-03-08T02:06:13;34.20;;;18.98;;
67889;SDS011;54685;52.082;5.426;2024-03-08T02:08:43;33.95;;;20.33;;
67889;SDS011;54685;52.082;5.426;2024-03-08T02:11:11;35.72;;;20.08;;
67889;SDS011;54685;52.082;5.426;2024-03-08T02:13:38;39.28;;;19.48;;
67889;SDS011;54685;52.082;5.426;2024-03-08T02:16:05;37.97;;;19.80;;
67889;SDS011;54685;52.082;5.426;2024-03-08T02:18:34;34.72;;;19.90;;
67889;SDS011;54685;52.082;5.426;2024-03-08T02:21:02;32.15;;;19.50;;
67889;SDS011;54685;52.082;5.426;2024-03-08T02:23:30;35.90;;;19.75;;
67889;SDS011;54685;52.082;5.426;2024-03-08T02:25:58;35.72;;;19.65;;
67889;SDS011;54685;52.082;5.426;2024-03-08T02:28:26;30.92;;;19.20;;
67889;SDS011;54685;52.082;5.426;2024-03-08T02:30:52;32.25;;;19.40;;
67889;SDS011;54685;52.082;5.426;2024-03-08T02:33:24;35.50;;;19.52;;
67889;SDS011;54685;52.082;5.426;2024-03-08T02:35:53;35.00;;;19.20;;
67889;SDS011;54685;52.082;5.426;2024-03-08T02:38:20;36.13;;;20.05;;
67889;SDS011;54685;52.082;5.426;2024-03-08T02:40:49;31.10;;;19.80;;
67889;SDS011;54685;52.082;5.426;2024-03-08T02:43:18;35.33;;;19.45;;
67889;SDS011;54685;52.082;5.426;2024-03-08T02:45:46;33.88;;;19.52;;
67889;SDS011;54685;52.082;5.426;2024-03-08T02:48:13;30.95;;;18.75;;
67889;SDS011;54685;52.082;5.426;2024-03-08T02:50:41;30.25;;;20.60;;
67889;SDS011;54685;52.082;5.426;2024-03-08T02:53:12;33.97;;;19.83;;
67889;SDS011;54685;52.082;5.426;2024-03-08T02:55:40;31.00;;;20.00;;
67889;SDS011;54685;52.082;5.426;2024-03-08T02:58:08;35.42;;;20.48;;
67889;SDS011;54685;52.082;5.426;2024-03-08T03:00:37;40.42;;;21.05;;
67889;SDS011;54685;52.082;5.426;2024-03-08T03:03:07;31.80;;;18.80;;
67889;SDS011;54685;52.082;5.426;2024-03-08T03:05:35;32.78;;;19.67;;
67889;SDS011;54685;52.082;5.426;2024-03-08T03:08:02;31.60;;;19.10;;
67889;SDS011;54685;52.082;5.426;2024-03-08T03:10:35;29.20;;;19.63;;
67889;SDS011;54685;52.082;5.426;2024-03-08T03:13:02;32.47;;;19.67;;
67889;SDS011;54685;52.082;5.426;2024-03-08T03:15:31;35.03;;;20.17;;
67889;SDS011;54685;52.082;5.426;2024-03-08T03:18:00;31.25;;;19.38;;
67889;SDS011;54685;52.082;5.426;2024-03-08T03:20:28;32.47;;;20.23;;
67889;SDS011;54685;52.082;5.426;2024-03-08T03:23:07;36.15;;;20.88;;
67889;SDS011;54685;52.082;5.426;2024-03-08T03:25:35;32.72;;;19.63;;
67889;SDS011;54685;52.082;5.426;2024-03-08T03:28:05;27.20;;;18.73;;
67889;SDS011;54685;52.082;5.426;2024-03-08T03:30:34;32.40;;;19.27;;
67889;SDS011;54685;52.082;5.426;2024-03-08T03:33:01;31.95;;;19.13;;
67889;SDS011;54685;52.082;5.426;2024-03-08T03:35:32;31.83;;;20.20;;
67889;SDS011;54685;52.082;5.426;2024-03-08T03:38:00;32.10;;;18.90;;
67889;SDS011;54685;52.082;5.426;2024-03-08T03:40:39;34.90;;;19.73;;
67889;SDS011;54685;52.082;5.426;2024-03-08T03:43:07;31.15;;;19.63;;
67889;SDS011;54685;52.082;5.426;2024-03-08T03:45:38;29.98;;;18.30;;
67889;SDS011;54685;52.082;5.426;2024-03-08T03:48:08;38.60;;;19.85;;
67889;SDS011;54685;52.082;5.426;2024-03-08T03:50:37;29.15;;;18.63;;
67889;SDS011;54685;52.082;5.426;2024-03-08T03:53:05;33.28;;;19.25;;
67889;SDS011;54685;52.082;5.426;2024-03-08T03:55:37;29.08;;;19.17;;
67889;SDS011;54685;52.082;5.426;2024-03-08T03:58:06;29.48;;;19.65;;
67889;SDS011;54685;52.082;5.426;2024-03-08T04:00:33;28.73;;;18.88;;
67889;SDS011;54685;52.082;5.426;2024-03-08T04:03:00;34.03;;;20.30;;
67889;SDS011;54685;52.082;5.426;2024-03-08T04:05:27;28.70;;;18.77;;
67889;SDS011;54685;52.082;5.426;2024-03-08T04:07:54;32.08;;;19.90;;
67889;SDS011;54685;52.082;5.426;2024-03-08T04:10:21;26.52;;;18.73;;
67889;SDS011;54685;52.082;5.426;2024-03-08T04:12:48;33.25;;;18.88;;
67889;SDS011;54685;52.082;5.426;2024-03-08T04:15:15;32.55;;;20.17;;
67889;SDS011;54685;52.082;5.426;2024-03-08T04:17:42;28.35;;;18.67;;
67889;SDS011;54685;52.082;5.426;2024-03-08T04:20:09;28.45;;;19.42;;
67889;SDS011;54685;52.082;5.426;2024-03-08T04:22:40;31.23;;;20.17;;
67889;SDS011;54685;52.082;5.426;2024-03-08T04:25:07;30.45;;;19.08;;
67889;SDS011;54685;52.082;5.426;2024-03-08T04:27:35;29.02;;;19.35;;
67889;SDS011;54685;52.082;5.426;2024-03-08T04:30:03;29.50;;;19.00;;
67889;SDS011;54685;52.082;5.426;2024-03-08T04:32:30;31.52;;;19.27;;
67889;SDS011;54685;52.082;5.426;2024-03-08T04:34:59;28.52;;;19.50;;
67889;SDS011;54685;52.082;5.426;2024-03-08T04:37:28;31.23;;;19.95;;
67889;SDS011;54685;52.082;5.426;2024-03-08T04:39:58;34.22;;;21.40;;
67889;SDS011;54685;52.082;5.426;2024-03-08T04:42:26;27.52;;;18.30;;
67889;SDS011;54685;52.082;5.426;2024-03-08T04:44:55;33.42;;;19.83;;
67889;SDS011;54685;52.082;5.426;2024-03-08T04:47:22;31.85;;;20.13;;
67889;SDS011;54685;52.082;5.426;2024-03-08T04:49:48;30.52;;;19.38;;
67889;SDS011;54685;52.082;5.426;2024-03-08T04:52:16;31.55;;;19.35;;
67889;SDS011;54685;52.082;5.426;2024-03-08T04:54:43;34.35;;;20.95;;
67889;SDS011;54685;52.082;5.426;2024-03-08T04:57:13;29.17;;;19.10;;
67889;SDS011;54685;52.082;5.426;2024-03-08T04:59:40;29.08;;;19.40;;
67889;SDS011;54685;52.082;5.426;2024-03-08T05:02:07;31.95;;;19.35;;
67889;SDS011;54685;52.082;5.426;2024-03-08T05:04:33;30.73;;;20.00;;
67889;SDS011;54685;52.082;5.426;2024-03-08T05:07:01;31.08;;;19.38;;
67889;SDS011;54685;52.082;5.426;2024-03-08T05:09:28;33.10;;;19.48;;
67889;SDS011;54685;52.082;5.426;2024-03-08T05:11:57;30.05;;;20.13;;
67889;SDS011;54685;52.082;5.426;2024-03-08T05:14:28;31.40;;;20.15;;
67889;SDS011;54685;52.082;5.426;2024-03-08T05:16:55;29.85;;;18.95;;
67889;SDS011;54685;52.082;5.426;2024-03-08T05:19:22;33.50;;;19.27;;
67889;SDS011;54685;52.082;5.426;2024-03-08T05:21:49;31.35;;;20.80;;
67889;SDS011;54685;52.082;5.426;2024-03-08T05:24:16;30.38;;;19.50;;
67889;SDS011;54685;52.082;5.426;2024-03-08T05:26:45;28.33;;;19.92;;
67889;SDS011;54685;52.082;5.426;2024-03-08T05:29:16;34.53;;;20.23;;
67889;SDS011;54685;52.082;5.426;2024-03-08T05:31:45;33.00;;;20.45;;
67889;SDS011;54685;52.082;5.426;2024-03-08T05:34:16;29.80;;;20.20;;
67889;SDS011;54685;52.082;5.426;2024-03-08T05:36:43;29.98;;;20.20;;
67889;SDS011;54685;52.082;5.426;2024-03-08T05:39:18;31.67;;;19.88;;
67889;SDS011;54685;52.082;5.426;2024-03-08T05:41:46;28.65;;;19.00;;
67889;SDS011;54685;52.082;5.426;2024-03-08T05:44:21;33.47;;;21.50;;
67889;SDS011;54685;52.082;5.426;2024-03-08T05:46:48;33.78;;;20.02;;
67889;SDS011;54685;52.082;5.426;2024-03-08T05:49:16;30.80;;;19.35;;
67889;SDS011;54685;52.082;5.426;2024-03-08T05:51:44;31.80;;;19.35;;
67889;SDS011;54685;52.082;5.426;2024-03-08T05:54:11;30.40;;;20.33;;
67889;SDS011;54685;52.082;5.426;2024-03-08T05:56:42;32.80;;;20.33;;
67889;SDS011;54685;52.082;5.426;2024-03-08T05:59:10;29.98;;;19.02;;
67889;SDS011;54685;52.082;5.426;2024-03-08T06:01:40;32.83;;;21.27;;
67889;SDS011;54685;52.082;5.426;2024-03-08T06:04:08;27.83;;;19.02;;
67889;SDS011;54685;52.082;5.426;2024-03-08T06:06:37;32.58;;;20.83;;
67889;SDS011;54685;52.082;5.426;2024-03-08T06:09:04;31.42;;;19.95;;
67889;SDS011;54685;52.082;5.426;2024-03-08T06:11:38;32.42;;;21.48;;
67889;SDS011;54685;52.082;5.426;2024-03-08T06:14:05;36.78;;;20.75;;
67889;SDS011;54685;52.082;5.426;2024-03-08T06:16:33;35.92;;;20.75;;
67889;SDS011;54685;52.082;5.426;2024-03-08T06:19:00;31.40;;;20.23;;
67889;SDS011;54685;52.082;5.426;2024-03-08T06:21:28;30.73;;;20.75;;
67889;SDS011;54685;52.082;5.426;2024-03-08T06:23:55;36.15;;;22.42;;
67889;SDS011;54685;52.082;5.426;2024-03-08T06:26:24;31.85;;;20.67;;
67889;SDS011;54685;52.082;5.426;2024-03-08T06:28:55;37.38;;;22.05;;
67889;SDS011;54685;52.082;5.426;2024-03-08T06:31:22;35.95;;;20.27;;
67889;SDS011;54685;52.082;5.426;2024-03-08T06:33:50;35.50;;;21.35;;
67889;SDS011;54685;52.082;5.426;2024-03-08T06:36:17;34.72;;;22.10;;
67889;SDS011;54685;52.082;5.426;2024-03-08T06:38:51;37.70;;;21.50;;
67889;SDS011;54685;52.082;5.426;2024-03-08T06:41:18;31.08;;;20.52;;
67889;SDS011;54685;52.082;5.426;2024-03-08T06:43:45;29.20;;;19.88;;
67889;SDS011;54685;52.082;5.426;2024-03-08T06:46:15;34.05;;;22.20;;
67889;SDS011;54685;52.082;5.426;2024-03-08T06:48:42;39.33;;;22.13;;
67889;SDS011;54685;52.082;5.426;2024-03-08T06:51:09;36.72;;;21.70;;
67889;SDS011;54685;52.082;5.426;2024-03-08T06:53:37;37.60;;;22.17;;
67889;SDS011;54685;52.082;5.426;2024-03-08T06:56:06;31.85;;;20.90;;
67889;SDS011;54685;52.082;5.426;2024-03-08T06:58:34;36.58;;;22.30;;
67889;SDS011;54685;52.082;5.426;2024-03-08T07:01:01;35.70;;;21.40;;
67889;SDS011;54685;52.082;5.426;2024-03-08T07:03:30;38.17;;;22.63;;
67889;SDS011;54685;52.082;5.426;2024-03-08T07:05:58;36.80;;;21.50;;
67889;SDS011;54685;52.082;5.426;2024-03-08T07:08:26;40.88;;;23.42;;
67889;SDS011;54685;52.082;5.426;2024-03-08T07:10:56;36.00;;;21.83;;
67889;SDS011;54685;52.082;5.426;2024-03-08T07:13:24;39.55;;;21.27;;
67889;SDS011;54685;52.082;5.426;2024-03-08T07:15:54;31.88;;;21.77;;
67889;SDS011;54685;52.082;5.426;2024-03-08T07:18:21;38.83;;;23.10;;
67889;SDS011;54685;52.082;5.426;2024-03-08T07:20:48;34.60;;;21.15;;
67889;SDS011;54685;52.082;5.426;2024-03-08T07:23:15;38.53;;;22.17;;
67889;SDS011;54685;52.082;5.426;2024-03-08T07:26:01;36.33;;;22.42;;
67889;SDS011;54685;52.082;5.426;2024-03-08T07:28:27;33.60;;;21.45;;
67889;SDS011;54685;52.082;5.426;2024-03-08T07:31:00;36.50;;;21.50;;
67889;SDS011;54685;52.082;5.426;2024-03-08T07:33:47;37.58;;;21.85;;
67889;SDS011;54685;52.082;5.426;2024-03-08T07:36:17;31.98;;;22.35;;
67889;SDS011;54685;52.082;5.426;2024-03-08T07:38:44;40.88;;;23.08;;
67889;SDS011;54685;52.082;5.426;2024-03-08T07:41:13;36.65;;;22.80;;
67889;SDS011;54685;52.082;5.426;2024-03-08T07:43:41;34.65;;;21.23;;
67889;SDS011;54685;52.082;5.426;2024-03-08T07:46:11;37.33;;;20.90;;
67889;SDS011;54685;52.082;5.426;2024-03-08T07:48:39;38.45;;;21.45;;
67889;SDS011;54685;52.082;5.426;2024-03-08T07:51:07;35.00;;;22.42;;
67889;SDS011;54685;52.082;5.426;2024-03-08T07:53:35;34.10;;;23.33;;
67889;SDS011;54685;52.082;5.426;2024-03-08T07:56:02;31.30;;;21.27;;
67889;SDS011;54685;52.082;5.426;2024-03-08T07:58:31;35.03;;;21.42;;
67889;SDS011;54685;52.082;5.426;2024-03-08T08:01:00;32.55;;;21.17;;
67889;SDS011;54685;52.082;5.426;2024-03-08T08:03:27;34.10;;;21.40;;
67889;SDS011;54685;52.082;5.426;2024-03-08T08:05:54;32.08;;;21.50;;
67889;SDS011;54685;52.082;5.426;2024-03-08T08:08:21;34.88;;;21.38;;
67889;SDS011;54685;52.082;5.426;2024-03-08T08:10:49;35.80;;;20.85;;
67889;SDS011;54685;52.082;5.426;2024-03-08T08:13:16;36.65;;;21.90;;
67889;SDS011;54685;52.082;5.426;2024-03-08T08:15:44;33.05;;;20.75;;
67889;SDS011;54685;52.082;5.426;2024-03-08T08:18:12;37.63;;;21.92;;
67889;SDS011;54685;52.082;5.426;2024-03-08T08:20:40;30.77;;;20.85;;
67889;SDS011;54685;52.082;5.426;2024-03-08T08:23:07;35.80;;;21.48;;
67889;SDS011;54685;52.082;5.426;2024-03-08T08:25:35;32.17;;;21.02;;
67889;SDS011;54685;52.082;5.426;2024-03-08T08:28:02;28.02;;;19.80;;
67889;SDS011;54685;52.082;5.426;2024-03-08T08:30:30;33.97;;;21.30;;
67889;SDS011;54685;52.082;5.426;2024-03-08T08:32:59;40.25;;;21.00;;
67889;SDS011;54685;52.082;5.426;2024-03-08T08:35:27;31.40;;;20.55;;
67889;SDS011;54685;52.082;5.426;2024-03-08T08:37:55;29.13;;;19.23;;
67889;SDS011;54685;52.082;5.426;2024-03-08T08:40:22;30.83;;;19.65;;
67889;SDS011;54685;52.082;5.426;2024-03-08T08:42:49;28.25;;;19.95;;
67889;SDS011;54685;52.082;5.426;2024-03-08T08:45:16;32.22;;;20.52;;
67889;SDS011;54685;52.082;5.426;2024-03-08T08:47:49;34.00;;;20.50;;
67889;SDS011;54685;52.082;5.426;2024-03-08T08:50:16;29.15;;;19.85;;
67889;SDS011;54685;52.082;5.426;2024-03-08T08:52:49;36.55;;;20.60;;
67889;SDS011;54685;52.082;5.426;2024-03-08T08:55:16;30.65;;;20.65;;
67889;SDS011;54685;52.082;5.426;2024-03-08T08:57:49;28.23;;;19.95;;
67889;SDS011;54685;52.082;5.426;2024-03-08T09:00:18;32.92;;;21.02;;
67889;SDS011;54685;52.082;5.426;2024-03-08T09:02:46;33.78;;;21.38;;
67889;SDS011;54685;52.082;5.426;2024-03-08T09:05:14;30.17;;;21.02;;
67889;SDS011;54685;52.082;5.426;2024-03-08T09:07:44;33.95;;;20.55;;
67889;SDS011;54685;52.082;5.426;2024-03-08T09:10:11;32.08;;;20.30;;
67889;SDS011;54685;52.082;5.426;2024-03-08T09:12:43;30.42;;;19.48;;
67889;SDS011;54685;52.082;5.426;2024-03-08T09:15:10;33.50;;;21.23;;
67889;SDS011;54685;52.082;5.426;2024-03-08T09:17:39;28.52;;;20.38;;
67889;SDS011;54685;52.082;5.426;2024-03-08T09:20:08;30.35;;;21.17;;
67889;SDS011;54685;52.082;5.426;2024-03-08T09:22:44;33.35;;;21.75;;
67889;SDS011;54685;52.082;5.426;2024-03-08T09:25:12;29.73;;;20.70;;
67889;SDS011;54685;52.082;5.426;2024-03-08T09:27:39;29.45;;;20.60;;
67889;SDS011;54685;52.082;5.426;2024-03-08T09:30:07;27.70;;;19.88;;
67889;SDS011;54685;52.082;5.426;2024-03-08T09:32:34;27.88;;;19.25;;
67889;SDS011;54685;52.082;5.426;2024-03-08T09:35:03;31.55;;;20.33;;
67889;SDS011;54685;52.082;5.426;2024-03-08T09:37:33;29.98;;;20.75;;
67889;SDS011;54685;52.082;5.426;2024-03-08T09:40:00;26.58;;;18.83;;
67889;SDS011;54685;52.082;5.426;2024-03-08T09:42:30;29.00;;;19.33;;
67889;SDS011;54685;52.082;5.426;2024-03-08T09:44:58;32.40;;;20.33;;
67889;SDS011;54685;52.082;5.426;2024-03-08T09:47:25;29.38;;;18.35;;
67889;SDS011;54685;52.082;5.426;2024-03-08T09:50:00;30.67;;;19.42;;
67889;SDS011;54685;52.082;5.426;2024-03-08T09:52:27;31.15;;;20.45;;
67889;SDS011;54685;52.082;5.426;2024-03-08T09:54:57;28.08;;;18.90;;
67889;SDS011;54685;52.082;5.426;2024-03-08T09:57:24;27.95;;;19.48;;
67889;SDS011;54685;52.082;5.426;2024-03-08T09:59:52;27.92;;;20.05;;
67889;SDS011;54685;52.082;5.426;2024-03-08T10:02:19;29.13;;;18.77;;
67889;SDS011;54685;52.082;5.426;2024-03-08T10:04:47;23.80;;;17.95;;
67889;SDS011;54685;52.082;5.426;2024-03-08T10:07:17;24.98;;;17.92;;
67889;SDS011;54685;52.082;5.426;2024-03-08T10:09:44;23.98;;;16.83;;
67889;SDS011;54685;52.082;5.426;2024-03-08T10:12:16;26.20;;;17.58;;
67889;SDS011;54685;52.082;5.426;2024-03-08T10:14:45;25.20;;;18.77;;
67889;SDS011;54685;52.082;5.426;2024-03-08T10:17:12;25.08;;;17.77;;
67889;SDS011;54685;52.082;5.426;2024-03-08T10:19:39;22.33;;;17.50;;
67889;SDS011;54685;52.082;5.426;2024-03-08T10:22:16;24.85;;;17.33;;
67889;SDS011;54685;52.082;5.426;2024-03-08T10:24:46;24.65;;;18.35;;
67889;SDS011;54685;52.082;5.426;2024-03-08T10:27:14;23.75;;;18.08;;
67889;SDS011;54685;52.082;5.426;2024-03-08T10:29:43;21.42;;;17.10;;
67889;SDS011;54685;52.082;5.426;2024-03-08T10:32:14;21.58;;;17.10;;
67889;SDS011;54685;52.082;5.426;2024-03-08T10:34:41;24.00;;;17.27;;
67889;SDS011;54685;52.082;5.426;2024-03-08T10:37:08;20.40;;;17.20;;
67889;SDS011;54685;52.082;5.426;2024-03-08T10:39:44;21.52;;;16.92;;
67889;SDS011;54685;52.082;5.426;2024-03-08T10:42:16;19.40;;;16.17;;
67889;SDS011;54685;52.082;5.426;2024-03-08T10:44:53;19.77;;;16.48;;
67889;SDS011;54685;52.082;5.426;2024-03-08T10:47:32;21.10;;;16.58;;
67889;SDS011;54685;52.082;5.426;2024-03-08T10:50:17;19.83;;;16.48;;
67889;SDS011;54685;52.082;5.426;2024-03-08T10:55:18;20.40;;;16.52;;
67889;SDS011;54685;52.082;5.426;2024-03-08T10:57:47;22.13;;;17.83;;
67889;SDS011;54685;52.082;5.426;2024-03-08T11:00:14;20.83;;;17.25;;
67889;SDS011;54685;52.082;5.426;2024-03-08T11:02:52;19.58;;;16.33;;
67889;SDS011;54685;52.082;5.426;2024-03-08T11:05:39;19.33;;;17.23;;
67889;SDS011;54685;52.082;5.426;2024-03-08T11:10:53;20.85;;;16.10;;
67889;SDS011;54685;52.082;5.426;2024-03-08T11:13:33;23.00;;;16.80;;
67889;SDS011;54685;52.082;5.426;2024-03-08T11:16:09;20.67;;;15.68;;
67889;SDS011;54685;52.082;5.426;2024-03-08T11:18:37;19.60;;;16.67;;
67889;SDS011;54685;52.082;5.426;2024-03-08T11:21:04;19.55;;;15.65;;
67889;SDS011;54685;52.082;5.426;2024-03-08T11:23:39;20.77;;;16.83;;
67889;SDS011;54685;52.082;5.426;2024-03-08T11:26:23;18.95;;;15.80;;
67889;SDS011;54685;52.082;5.426;2024-03-08T11:28:51;19.17;;;15.35;;
67889;SDS011;54685;52.082;5.426;2024-03-08T11:31:22;18.85;;;15.60;;
67889;SDS011;54685;52.082;5.426;2024-03-08T11:33:51;17.38;;;14.52;;
67889;SDS011;54685;52.082;5.426;2024-03-08T11:36:21;18.00;;;14.32;;
67889;SDS011;54685;52.082;5.426;2024-03-08T11:38:51;16.95;;;14.15;;
67889;SDS011;54685;52.082;5.426;2024-03-08T11:41:19;18.50;;;14.32;;
67889;SDS011;54685;52.082;5.426;2024-03-08T11:43:47;17.77;;;14.10;;
67889;SDS011;54685;52.082;5.426;2024-03-08T11:46:16;16.10;;;13.40;;
67889;SDS011;54685;52.082;5.426;2024-03-08T11:48:44;14.43;;;12.93;;
67889;SDS011;54685;52.082;5.426;2024-03-08T11:51:14;24.80;;;13.50;;
67889;SDS011;54685;52.082;5.426;2024-03-08T11:53:41;14.05;;;11.73;;
67889;SDS011;54685;52.082;5.426;2024-03-08T11:56:19;16.90;;;13.23;;
67889;SDS011;54685;52.082;5.426;2024-03-08T11:58:59;14.80;;;12.10;;
67889;SDS011;54685;52.082;5.426;2024-03-08T12:01:27;15.43;;;11.95;;
67889;SDS011;54685;52.082;5.426;2024-03-08T12:03:54;15.23;;;12.35;;
67889;SDS011;54685;52.082;5.426;2024-03-08T12:06:26;18.02;;;12.25;;
67889;SDS011;54685;52.082;5.426;2024-03-08T12:09:03;15.20;;;13.02;;
67889;SDS011;54685;52.082;5.426;2024-03-08T12:11:29;16.25;;;13.02;;
67889;SDS011;54685;52.082;5.426;2024-03-08T12:13:59;22.33;;;13.52;;
67889;SDS011;54685;52.082;5.426;2024-03-08T12:16:27;17.33;;;12.43;;
67889;SDS011;54685;52.082;5.426;2024-03-08T12:18:54;13.48;;;11.55;;
67889;SDS011;54685;52.082;5.426;2024-03-08T12:21:27;17.08;;;12.00;;
67889;SDS011;54685;52.082;5.426;2024-03-08T12:24:02;13.60;;;11.70;;
67889;SDS011;54685;52.082;5.426;2024-03-08T12:26:30;17.23;;;12.70;;
67889;SDS011;54685;52.082;5.426;2024-03-08T12:31:51;17.42;;;13.52;;
67889;SDS011;54685;52.082;5.426;2024-03-08T12:34:20;15.57;;;13.27;;
67889;SDS011;54685;52.082;5.426;2024-03-08T12:36:47;18.27;;;13.05;;
67889;SDS011;54685;52.082;5.426;2024-03-08T12:39:16;15.45;;;12.38;;
67889;SDS011;54685;52.082;5.426;2024-03-08T12:41:51;17.05;;;12.82;;
67889;SDS011;54685;52.082;5.426;2024-03-08T12:44:18;17.17;;;13.25;;
67889;SDS011;54685;52.082;5.426;2024-03-08T12:46:47;23.63;;;13.38;;
67889;SDS011;54685;52.082;5.426;2024-03-08T12:49:18;18.23;;;12.88;;
67889;SDS011;54685;52.082;5.426;2024-03-08T12:51:49;15.07;;;12.40;;
67889;SDS011;54685;52.082;5.426;2024-03-08T12:54:15;14.63;;;13.02;;
67889;SDS011;54685;52.082;5.426;2024-03-08T12:56:42;15.13;;;12.70;;
67889;SDS011;54685;52.082;5.426;2024-03-08T12:59:09;15.05;;;12.48;;
67889;SDS011;54685;52.082;5.426;2024-03-08T13:01:39;18.05;;;12.35;;
67889;SDS011;54685;52.082;5.426;2024-03-08T13:04:06;14.98;;;13.07;;
67889;SDS011;54685;52.082;5.426;2024-03-08T13:06:37;17.08;;;13.85;;
67889;SDS011;54685;52.082;5.426;2024-03-08T13:09:04;15.18;;;12.52;;
67889;SDS011;54685;52.082;5.426;2024-03-08T13:11:32;16.38;;;13.48;;
67889;SDS011;54685;52.082;5.426;2024-03-08T13:14:03;15.57;;;13.20;;
67889;SDS011;54685;52.082;5.426;2024-03-08T13:16:31;17.35;;;13.02;;
67889;SDS011;54685;52.082;5.426;2024-03-08T13:19:01;16.38;;;12.55;;
67889;SDS011;54685;52.082;5.426;2024-03-08T13:21:28;17.73;;;14.15;;
67889;SDS011;54685;52.082;5.426;2024-03-08T13:23:56;15.85;;;13.85;;
67889;SDS011;54685;52.082;5.426;2024-03-08T13:26:25;16.40;;;13.77;;
67889;SDS011;54685;52.082;5.426;2024-03-08T13:28:58;17.80;;;13.38;;
67889;SDS011;54685;52.082;5.426;2024-03-08T13:31:29;16.50;;;14.52;;
67889;SDS011;54685;52.082;5.426;2024-03-08T13:33:56;14.65;;;12.93;;
67889;SDS011;54685;52.082;5.426;2024-03-08T13:36:25;15.80;;;13.85;;
67889;SDS011;54685;52.082;5.426;2024-03-08T13:38:55;17.95;;;14.50;;
67889;SDS011;54685;52.082;5.426;2024-03-08T13:41:25;18.13;;;13.88;;
67889;SDS011;54685;52.082;5.426;2024-03-08T13:43:52;19.98;;;14.45;;
67889;SDS011;54685;52.082;5.426;2024-03-08T13:46:19;18.05;;;14.00;;
67889;SDS011;54685;52.082;5.426;2024-03-08T13:48:46;18.13;;;14.52;;
67889;SDS011;54685;52.082;5.426;2024-03-08T13:51:14;16.25;;;13.70;;
67889;SDS011;54685;52.082;5.426;2024-03-08T13:53:44;18.08;;;14.45;;
67889;SDS011;54685;52.082;5.426;2024-03-08T13:56:11;20.20;;;14.43;;
67889;SDS011;54685;52.082;5.426;2024-03-08T13:58:38;21.50;;;14.50;;
67889;SDS011;54685;52.082;5.426;2024-03-08T14:01:06;18.48;;;14.32;;
67889;SDS011;54685;52.082;5.426;2024-03-08T14:03:38;16.50;;;14.20;;
67889;SDS011;54685;52.082;5.426;2024-03-08T14:06:08;18.13;;;14.70;;
67889;SDS011;54685;52.082;5.426;2024-03-08T14:08:35;17.48;;;14.68;;
67889;SDS011;54685;52.082;5.426;2024-03-08T14:11:05;20.77;;;15.30;;
67889;SDS011;54685;52.082;5.426;2024-03-08T14:13:42;17.42;;;13.80;;
67889;SDS011;54685;52.082;5.426;2024-03-08T14:16:13;19.08;;;14.48;;
67889;SDS011;54685;52.082;5.426;2024-03-08T14:18:41;18.15;;;13.60;;
67889;SDS011;54685;52.082;5.426;2024-03-08T14:21:08;28.65;;;15.13;;
67889;SDS011;54685;52.082;5.426;2024-03-08T14:23:35;16.27;;;13.60;;
67889;SDS011;54685;52.082;5.426;2024-03-08T14:26:05;17.98;;;14.55;;
67889;SDS011;54685;52.082;5.426;2024-03-08T14:31:01;23.95;;;15.25;;
67889;SDS011;54685;52.082;5.426;2024-03-08T14:33:32;17.40;;;14.90;;
67889;SDS011;54685;52.082;5.426;2024-03-08T14:35:59;19.67;;;14.82;;
67889;SDS011;54685;52.082;5.426;2024-03-08T14:38:27;16.25;;;14.05;;
67889;SDS011;54685;52.082;5.426;2024-03-08T14:40:54;18.70;;;15.73;;